Time;durP1;ratioP1;P1;durP2;ratioP2;P2;SDS_P1;SDS_P2;PMS_P1;PMS_P2;Temp;Humidity;BMP_temperature;BMP_pressure;BME280_temperature;BME280_humidity;BME280_pressure;Samples;Min_cycle;Max_cycle;Signal;HPM_P1;HPM_P2
2023/05/07 00:01:32;;;;;;;30.23;21.95;;;12.30;99.90;;;;;;4975353;28;20057;-64
2023/05/07 00:03:57;;;;;;;31.65;21.85;;;12.30;99.90;;;;;;5000534;28;20037;-64
2023/05/07 00:06:23;;;;;;;30.30;21.48;;;12.30;99.90;;;;;;4978437;28;20034;-64
2023/05/07 00:08:49;;;;;;;31.98;22.38;;;12.20;99.90;;;;;;4984398;28;20045;-64
2023/05/07 00:11:15;;;;;;;32.30;22.25;;;12.20;99.90;;;;;;4977515;28;20050;-64
2023/05/07 00:13:41;;;;;;;33.72;22.00;;;12.20;99.90;;;;;;4994124;28;20050;-64
2023/05/07 00:16:06;;;;;;;32.75;22.00;;;12.20;99.90;;;;;;4985513;28;20136;-64
2023/05/07 00:18:32;;;;;;;30.48;21.80;;;12.20;99.90;;;;;;4983804;28;20497;-64
2023/05/07 00:20:58;;;;;;;29.25;22.17;;;12.10;99.90;;;;;;4976488;28;20034;-64
2023/05/07 00:23:24;;;;;;;32.92;22.48;;;12.10;99.90;;;;;;4990721;28;20038;-64
2023/05/07 00:25:50;;;;;;;35.03;23.17;;;12.10;99.90;;;;;;4992714;28;20042;-64
2023/05/07 00:28:15;;;;;;;32.92;23.08;;;12.10;99.90;;;;;;4989826;28;20042;-64
2023/05/07 00:30:41;;;;;;;35.08;24.05;;;12.00;99.90;;;;;;4990870;28;20397;-65
2023/05/07 00:33:07;;;;;;;34.65;24.10;;;12.00;99.90;;;;;;4969807;28;20446;-64
2023/05/07 00:35:32;;;;;;;33.67;24.60;;;12.00;99.90;;;;;;4977107;28;20052;-64
2023/05/07 00:37:58;;;;;;;36.47;24.85;;;12.00;99.90;;;;;;4995148;28;20084;-65
2023/05/07 00:40:24;;;;;;;35.28;24.63;;;11.90;99.90;;;;;;4996546;28;20089;-65
2023/05/07 00:42:50;;;;;;;35.28;24.95;;;11.90;99.90;;;;;;4990617;28;20104;-65
2023/05/07 00:45:17;;;;;;;36.42;25.67;;;11.90;99.90;;;;;;4976736;28;20559;-64
2023/05/07 00:47:43;;;;;;;35.83;25.67;;;11.90;99.90;;;;;;4990614;28;20041;-65
2023/05/07 00:50:12;;;;;;;41.50;26.40;;;11.90;99.90;;;;;;4962410;28;20038;-65
2023/05/07 00:52:38;;;;;;;35.33;25.05;;;11.80;99.90;;;;;;4975896;28;20588;-65
2023/05/07 00:55:06;;;;;;;36.65;25.55;;;11.80;99.90;;;;;;4976495;28;20057;-65
2023/05/07 00:57:40;;;;;;;33.20;25.00;;;11.80;99.90;;;;;;4965340;28;20069;-65
2023/05/07 01:00:08;;;;;;;35.55;24.40;;;11.80;99.90;;;;;;4974090;28;20140;-65
2023/05/07 01:02:35;;;;;;;34.53;25.80;;;11.80;99.90;;;;;;4981418;28;20503;-64
2023/05/07 01:05:05;;;;;;;36.28;25.15;;;11.70;99.90;;;;;;4977474;28;20049;-65
2023/05/07 01:07:32;;;;;;;35.33;25.50;;;11.70;99.90;;;;;;5003440;28;20393;-65
2023/05/07 01:09:58;;;;;;;38.00;24.75;;;11.70;99.90;;;;;;4990593;28;20041;-64
2023/05/07 01:12:25;;;;;;;37.83;24.77;;;11.70;99.90;;;;;;4990965;28;20505;-64
2023/05/07 01:14:51;;;;;;;36.00;25.80;;;11.70;99.90;;;;;;4981742;28;20503;-64
2023/05/07 01:17:17;;;;;;;35.25;24.85;;;11.70;99.90;;;;;;4985345;28;20393;-64
2023/05/07 01:19:44;;;;;;;34.83;26.05;;;11.70;99.90;;;;;;4994631;28;20041;-64
2023/05/07 01:22:15;;;;;;;36.42;25.88;;;11.60;99.90;;;;;;4994813;28;20073;-65
2023/05/07 01:24:41;;;;;;;36.58;26.38;;;11.70;99.90;;;;;;4977825;28;20102;-64
2023/05/07 01:27:07;;;;;;;36.88;27.52;;;11.70;99.90;;;;;;4981211;28;20092;-65
2023/05/07 01:29:33;;;;;;;39.47;27.77;;;11.70;99.90;;;;;;5001486;28;20041;-64
2023/05/07 01:32:00;;;;;;;33.40;26.70;;;11.70;99.90;;;;;;4991383;28;20068;-64
2023/05/07 01:34:30;;;;;;;44.63;28.60;;;11.70;99.90;;;;;;4986045;28;20045;-64
2023/05/07 01:36:57;;;;;;;38.35;27.67;;;11.60;99.90;;;;;;4997395;28;20050;-64
2023/05/07 01:39:29;;;;;;;38.80;27.45;;;11.60;99.90;;;;;;4977947;28;20801;-64
2023/05/07 01:41:56;;;;;;;39.75;27.83;;;11.60;99.90;;;;;;4993184;28;20041;-65
2023/05/07 01:44:23;;;;;;;33.78;26.23;;;11.60;99.90;;;;;;4994588;28;20151;-63
2023/05/07 01:46:49;;;;;;;35.22;26.67;;;11.60;99.90;;;;;;4993130;28;20074;-64
2023/05/07 01:49:16;;;;;;;38.35;26.08;;;11.60;99.90;;;;;;4978087;28;20060;-64
2023/05/07 01:51:43;;;;;;;34.78;25.23;;;11.60;99.90;;;;;;4978841;28;20055;-63
2023/05/07 01:54:09;;;;;;;34.30;26.20;;;11.60;99.90;;;;;;4990415;28;20049;-64
2023/05/07 01:56:35;;;;;;;37.60;26.17;;;11.60;99.90;;;;;;4985963;28;20515;-64
2023/05/07 01:59:01;;;;;;;36.20;25.45;;;11.60;99.90;;;;;;4992991;28;20160;-63
2023/05/07 02:01:28;;;;;;;40.95;25.70;;;11.60;99.90;;;;;;4992690;28;20048;-64
2023/05/07 02:03:54;;;;;;;35.13;25.50;;;11.60;99.90;;;;;;4984109;28;20045;-64
2023/05/07 02:06:20;;;;;;;37.47;25.88;;;11.50;99.90;;;;;;4989817;28;20049;-64
2023/05/07 02:08:47;;;;;;;35.67;25.58;;;11.50;99.90;;;;;;4989854;28;20728;-63
2023/05/07 02:11:12;;;;;;;38.85;26.80;;;11.50;99.90;;;;;;4997841;28;20144;-65
2023/05/07 02:13:38;;;;;;;32.67;24.88;;;11.50;99.90;;;;;;4976728;28;20053;-63
2023/05/07 02:16:04;;;;;;;36.47;26.00;;;11.50;99.90;;;;;;4988433;28;20504;-63
2023/05/07 02:18:31;;;;;;;41.78;27.38;;;11.40;99.90;;;;;;4994625;28;20072;-64
2023/05/07 02:20:57;;;;;;;38.13;26.23;;;11.40;99.90;;;;;;4994894;28;20124;-63
2023/05/07 02:23:23;;;;;;;38.15;26.38;;;11.40;99.90;;;;;;4996440;28;20045;-63
2023/05/07 02:25:49;;;;;;;38.22;26.00;;;11.40;99.90;;;;;;4995022;28;22337;-63
2023/05/07 02:28:15;;;;;;;39.60;27.40;;;11.40;99.90;;;;;;4997126;28;20053;-64
2023/05/07 02:30:41;;;;;;;37.05;25.45;;;11.40;99.90;;;;;;5000697;28;20504;-64
2023/05/07 02:33:08;;;;;;;36.65;27.15;;;11.40;99.90;;;;;;4993587;28;20066;-64
2023/05/07 02:35:33;;;;;;;36.40;26.05;;;11.40;99.90;;;;;;4996558;28;20519;-64
2023/05/07 02:37:59;;;;;;;36.70;26.35;;;11.40;99.90;;;;;;4996062;28;20104;-63
2023/05/07 02:40:25;;;;;;;35.50;26.30;;;11.40;99.90;;;;;;4977454;28;20418;-64
2023/05/07 02:42:51;;;;;;;39.47;26.48;;;11.40;99.90;;;;;;4995163;28;20050;-63
2023/05/07 02:45:16;;;;;;;37.50;25.95;;;11.40;99.90;;;;;;4995114;28;20045;-64
2023/05/07 02:47:42;;;;;;;38.97;26.92;;;11.30;99.90;;;;;;4975388;28;20555;-64
2023/05/07 02:50:08;;;;;;;37.45;26.52;;;11.40;99.90;;;;;;4986919;28;20091;-64
2023/05/07 02:52:33;;;;;;;40.40;28.63;;;11.40;99.90;;;;;;4995514;28;20045;-64
2023/05/07 02:54:59;;;;;;;44.08;29.30;;;11.40;99.90;;;;;;4988142;28;20488;-64
2023/05/07 02:57:25;;;;;;;39.88;28.58;;;11.40;99.90;;;;;;4993898;28;20088;-63
2023/05/07 02:59:51;;;;;;;42.40;30.58;;;11.40;99.90;;;;;;5001899;28;20059;-64
2023/05/07 03:02:16;;;;;;;43.35;30.27;;;11.40;99.90;;;;;;4990810;28;20050;-64
2023/05/07 03:04:42;;;;;;;40.22;28.95;;;11.40;99.90;;;;;;4981857;28;20151;-64
2023/05/07 03:07:08;;;;;;;41.78;28.25;;;11.30;99.90;;;;;;4985650;28;20076;-64
2023/05/07 03:09:33;;;;;;;40.47;29.17;;;11.30;99.90;;;;;;4980727;28;20076;-64
2023/05/07 03:11:59;;;;;;;41.80;29.10;;;11.30;99.90;;;;;;4991980;28;20040;-64
2023/05/07 03:14:25;;;;;;;38.40;28.83;;;11.30;99.90;;;;;;4966257;28;20058;-63
2023/05/07 03:16:51;;;;;;;41.70;29.05;;;11.30;99.90;;;;;;4978461;28;20045;-63
2023/05/07 03:19:16;;;;;;;39.35;27.83;;;11.30;99.90;;;;;;4987695;28;20049;-64
2023/05/07 03:21:42;;;;;;;41.70;28.92;;;11.30;99.90;;;;;;4991362;28;20049;-64
2023/05/07 03:24:08;;;;;;;40.53;28.33;;;11.30;99.90;;;;;;4987655;28;20068;-63
2023/05/07 03:26:33;;;;;;;38.25;27.58;;;11.30;99.90;;;;;;4981801;28;20637;-64
2023/05/07 03:28:59;;;;;;;37.47;26.17;;;11.30;99.90;;;;;;4981982;28;20052;-64
2023/05/07 03:31:25;;;;;;;43.45;27.73;;;11.20;99.90;;;;;;4968355;28;20048;-62
2023/05/07 03:33:56;;;;;;;37.70;26.92;;;11.20;99.90;;;;;;4973310;28;20056;-63
2023/05/07 03:36:22;;;;;;;41.95;27.38;;;11.20;99.90;;;;;;4990534;28;20472;-63
2023/05/07 03:38:49;;;;;;;41.08;28.65;;;11.20;99.90;;;;;;4972888;28;20654;-64
2023/05/07 03:41:15;;;;;;;37.17;27.05;;;11.20;99.90;;;;;;4995777;28;20045;-64
2023/05/07 03:43:41;;;;;;;48.20;28.42;;;11.20;99.90;;;;;;4988456;28;20042;-63
2023/05/07 03:46:07;;;;;;;42.95;28.08;;;11.10;99.90;;;;;;4988545;28;20060;-63
2023/05/07 03:48:33;;;;;;;47.40;29.38;;;11.20;99.90;;;;;;4975545;28;20050;-64
2023/05/07 03:50:59;;;;;;;44.90;28.65;;;11.10;99.90;;;;;;4983065;28;20096;-64
2023/05/07 03:53:25;;;;;;;40.50;27.02;;;11.10;99.90;;;;;;4977313;28;20132;-63
2023/05/07 03:55:50;;;;;;;40.10;28.00;;;11.10;99.90;;;;;;4977630;28;20071;-63
2023/05/07 03:58:16;;;;;;;41.65;28.05;;;11.10;99.90;;;;;;4992286;28;20477;-63
2023/05/07 04:00:42;;;;;;;40.88;28.42;;;11.00;99.90;;;;;;4987648;28;20154;-64
2023/05/07 04:03:08;;;;;;;39.97;27.67;;;11.00;99.90;;;;;;4972820;28;20102;-64
2023/05/07 04:05:34;;;;;;;37.40;26.95;;;11.00;99.90;;;;;;4989713;28;20052;-63
2023/05/07 04:08:00;;;;;;;38.45;27.80;;;11.00;99.90;;;;;;4992450;28;20038;-63
2023/05/07 04:10:27;;;;;;;38.95;26.98;;;11.00;99.90;;;;;;4990122;28;20049;-63
2023/05/07 04:12:53;;;;;;;36.97;26.88;;;11.00;99.90;;;;;;4993808;28;20099;-63
2023/05/07 04:15:19;;;;;;;38.63;27.27;;;11.00;99.90;;;;;;4989156;28;20057;-64
2023/05/07 04:17:45;;;;;;;38.42;27.40;;;11.00;99.90;;;;;;4990668;28;20130;-64
2023/05/07 04:20:16;;;;;;;45.20;28.05;;;11.00;99.90;;;;;;4978045;28;20507;-64
2023/05/07 04:22:42;;;;;;;35.10;26.45;;;11.00;99.90;;;;;;4979920;28;20451;-63
2023/05/07 04:25:09;;;;;;;38.72;27.23;;;11.00;99.90;;;;;;4989088;28;20049;-64
2023/05/07 04:27:35;;;;;;;41.22;27.58;;;11.00;99.90;;;;;;4994110;28;20436;-64
2023/05/07 04:30:02;;;;;;;40.75;28.55;;;11.00;99.90;;;;;;4989063;28;20059;-64
2023/05/07 04:32:29;;;;;;;42.55;28.13;;;11.00;99.90;;;;;;4979653;28;20041;-64
2023/05/07 04:34:58;;;;;;;40.70;27.35;;;11.00;99.90;;;;;;4989284;28;20045;-64
2023/05/07 04:37:25;;;;;;;40.63;27.38;;;11.00;99.90;;;;;;4989166;28;20053;-64
2023/05/07 04:39:50;;;;;;;38.67;27.10;;;11.00;99.90;;;;;;4988744;28;20124;-64
2023/05/07 04:42:17;;;;;;;38.05;26.25;;;11.00;99.90;;;;;;4995439;28;20396;-63
2023/05/07 04:44:46;;;;;;;39.53;26.55;;;11.00;99.90;;;;;;4987460;28;20172;-64
2023/05/07 04:47:12;;;;;;;35.38;25.73;;;10.90;99.90;;;;;;4978361;28;20046;-64
2023/05/07 04:49:38;;;;;;;36.88;26.88;;;10.90;99.90;;;;;;4985037;28;20041;-64
2023/05/07 04:52:04;;;;;;;35.28;25.73;;;10.90;99.90;;;;;;5006200;28;20052;-64
2023/05/07 04:54:30;;;;;;;33.38;23.88;;;10.90;99.90;;;;;;4969057;28;20049;-64
2023/05/07 04:56:56;;;;;;;39.92;25.38;;;10.90;99.90;;;;;;4992223;28;20052;-64
2023/05/07 04:59:21;;;;;;;36.70;25.05;;;10.90;99.90;;;;;;4979405;28;20057;-64
2023/05/07 05:01:47;;;;;;;38.95;26.80;;;10.90;99.90;;;;;;4989362;28;20099;-64
2023/05/07 05:04:13;;;;;;;33.03;24.90;;;10.90;99.90;;;;;;4988956;28;20052;-64
2023/05/07 05:06:39;;;;;;;37.67;25.05;;;10.90;99.90;;;;;;4973237;28;20762;-64
2023/05/07 05:09:05;;;;;;;34.05;25.35;;;10.80;99.90;;;;;;4979591;28;20049;-64
2023/05/07 05:11:31;;;;;;;33.28;24.63;;;10.90;99.90;;;;;;4981027;28;20068;-64
2023/05/07 05:13:57;;;;;;;35.20;24.77;;;10.90;99.90;;;;;;4964063;28;20053;-63
2023/05/07 05:16:22;;;;;;;34.13;24.92;;;10.90;99.90;;;;;;4980822;28;20056;-63
2023/05/07 05:18:48;;;;;;;35.00;24.50;;;10.90;99.90;;;;;;4988406;28;20042;-64
2023/05/07 05:21:14;;;;;;;37.15;24.52;;;10.90;99.90;;;;;;4989641;28;20077;-64
2023/05/07 05:23:40;;;;;;;32.85;24.48;;;10.80;99.90;;;;;;4991633;28;20523;-64
2023/05/07 05:26:06;;;;;;;37.17;26.05;;;10.90;99.90;;;;;;4992329;28;20049;-64
2023/05/07 05:28:31;;;;;;;34.72;24.30;;;10.90;99.90;;;;;;4989054;28;20057;-63
2023/05/07 05:30:57;;;;;;;34.13;24.63;;;10.80;99.90;;;;;;4989661;28;20049;-63
2023/05/07 05:33:23;;;;;;;34.60;24.05;;;10.90;99.90;;;;;;4973280;28;20049;-63
2023/05/07 05:35:49;;;;;;;33.85;24.63;;;10.80;99.90;;;;;;4980610;28;20060;-64
2023/05/07 05:38:15;;;;;;;33.28;23.42;;;10.90;99.90;;;;;;4990787;28;20588;-63
2023/05/07 05:40:41;;;;;;;31.90;24.00;;;10.90;99.90;;;;;;4993202;28;20058;-63
2023/05/07 05:43:06;;;;;;;30.85;23.83;;;10.90;99.90;;;;;;4992102;28;20077;-64
2023/05/07 05:45:32;;;;;;;30.75;23.73;;;10.90;99.90;;;;;;4990747;28;20472;-64
2023/05/07 05:47:58;;;;;;;31.75;23.85;;;10.90;99.90;;;;;;4979529;28;20041;-64
2023/05/07 05:50:24;;;;;;;29.25;22.50;;;10.90;99.90;;;;;;4992024;28;20048;-64
2023/05/07 05:52:50;;;;;;;31.85;23.00;;;10.90;99.90;;;;;;4978493;28;20085;-64
2023/05/07 05:55:16;;;;;;;31.60;23.33;;;10.90;99.90;;;;;;4980452;28;20131;-64
2023/05/07 05:57:42;;;;;;;32.97;22.67;;;10.90;99.90;;;;;;5006301;28;20496;-63
2023/05/07 06:00:09;;;;;;;32.10;23.80;;;10.90;99.90;;;;;;4988591;28;20045;-64
2023/05/07 06:02:34;;;;;;;30.95;22.50;;;10.90;99.90;;;;;;4972143;28;20128;-64
2023/05/07 06:05:00;;;;;;;29.35;22.63;;;10.90;99.90;;;;;;4986333;28;20088;-63
2023/05/07 06:07:26;;;;;;;31.63;22.98;;;11.00;99.90;;;;;;4981900;28;20508;-63
2023/05/07 06:09:51;;;;;;;30.08;22.27;;;11.00;99.90;;;;;;4956447;28;20054;-63
2023/05/07 06:12:17;;;;;;;30.08;22.92;;;11.00;99.90;;;;;;4978138;28;20395;-64
2023/05/07 06:14:43;;;;;;;31.30;22.42;;;11.00;99.90;;;;;;4983084;28;20460;-64
2023/05/07 06:17:09;;;;;;;32.83;23.55;;;11.00;99.90;;;;;;4993247;28;20052;-64
2023/05/07 06:19:35;;;;;;;32.47;22.80;;;11.00;99.90;;;;;;4990520;28;20060;-63
2023/05/07 06:22:02;;;;;;;31.35;22.90;;;11.10;99.90;;;;;;4987707;28;20052;-64
2023/05/07 06:24:28;;;;;;;33.38;23.13;;;11.10;99.90;;;;;;4975352;28;20042;-64
2023/05/07 06:26:54;;;;;;;30.67;23.05;;;11.10;99.90;;;;;;4988912;28;20067;-64
2023/05/07 06:29:20;;;;;;;28.60;22.25;;;11.10;99.90;;;;;;4978088;28;20037;-64
2023/05/07 06:31:46;;;;;;;30.63;23.05;;;11.20;99.90;;;;;;4976834;28;20124;-64
2023/05/07 06:34:14;;;;;;;30.75;23.13;;;11.20;99.90;;;;;;4945638;28;20061;-64
2023/05/07 06:36:42;;;;;;;30.35;23.50;;;11.30;99.90;;;;;;4997394;28;20503;-64
2023/05/07 06:39:08;;;;;;;29.27;23.92;;;11.30;99.90;;;;;;4984833;28;20181;-63
2023/05/07 06:41:35;;;;;;;31.75;23.70;;;11.30;99.90;;;;;;4990436;28;20054;-64
2023/05/07 06:44:02;;;;;;;32.97;24.70;;;11.30;99.90;;;;;;4958856;28;20469;-64
2023/05/07 06:46:29;;;;;;;34.88;25.20;;;11.30;99.90;;;;;;4981866;28;20504;-64
2023/05/07 06:48:56;;;;;;;31.77;24.85;;;11.30;99.90;;;;;;4984839;28;20044;-64
2023/05/07 06:51:22;;;;;;;30.77;24.58;;;11.30;99.90;;;;;;4976343;28;20045;-64
2023/05/07 06:53:48;;;;;;;34.10;25.83;;;11.30;99.90;;;;;;4968322;28;20043;-64
2023/05/07 06:56:13;;;;;;;31.65;25.00;;;11.40;99.90;;;;;;4969215;28;20064;-64
2023/05/07 06:58:39;;;;;;;33.53;25.58;;;11.40;99.90;;;;;;4982522;28;20049;-63
2023/05/07 07:01:05;;;;;;;32.05;23.58;;;11.50;99.90;;;;;;4970826;28;20053;-64
2023/05/07 07:03:31;;;;;;;30.95;24.45;;;11.50;99.90;;;;;;4969439;28;20045;-63
2023/05/07 07:05:57;;;;;;;33.03;25.02;;;11.50;99.90;;;;;;4978039;28;20045;-64
2023/05/07 07:08:22;;;;;;;30.05;23.73;;;11.50;99.90;;;;;;4979052;28;20045;-64
2023/05/07 07:10:48;;;;;;;31.25;23.98;;;11.50;99.90;;;;;;4994227;28;20041;-64
2023/05/07 07:13:14;;;;;;;30.98;23.52;;;11.50;99.90;;;;;;4989466;28;20412;-63
2023/05/07 07:15:40;;;;;;;28.23;21.73;;;11.50;99.90;;;;;;4987951;28;20127;-64
2023/05/07 07:18:06;;;;;;;31.25;23.13;;;11.50;99.90;;;;;;4972273;28;20092;-64
2023/05/07 07:20:32;;;;;;;28.58;21.55;;;11.50;99.90;;;;;;4981508;28;20520;-64
2023/05/07 07:22:58;;;;;;;31.73;22.23;;;11.50;99.90;;;;;;4976806;28;20048;-64
2023/05/07 07:25:24;;;;;;;29.02;21.25;;;11.50;99.90;;;;;;4982820;28;20046;-64
2023/05/07 07:27:50;;;;;;;30.25;21.20;;;11.40;99.90;;;;;;4983107;28;20070;-64
2023/05/07 07:30:15;;;;;;;29.60;21.40;;;11.30;99.90;;;;;;4953887;28;20149;-64
2023/05/07 07:32:42;;;;;;;29.42;21.58;;;11.30;99.90;;;;;;4971199;28;20046;-64
2023/05/07 07:35:08;;;;;;;28.58;20.88;;;11.30;99.90;;;;;;4959135;28;20139;-64
2023/05/07 07:37:34;;;;;;;27.85;20.88;;;11.30;99.90;;;;;;4984579;28;20052;-64
2023/05/07 07:40:00;;;;;;;31.65;21.55;;;11.40;99.90;;;;;;4986103;28;20405;-64
2023/05/07 07:42:26;;;;;;;31.48;21.45;;;11.40;99.90;;;;;;4981760;28;21863;-64
2023/05/07 07:44:52;;;;;;;31.45;21.80;;;11.40;99.90;;;;;;4973079;28;20042;-64
2023/05/07 07:47:18;;;;;;;34.25;22.65;;;11.40;99.90;;;;;;4985016;28;20762;-64
2023/05/07 07:49:43;;;;;;;33.22;22.25;;;11.40;99.90;;;;;;4983075;28;20061;-64
2023/05/07 07:52:09;;;;;;;31.77;21.85;;;11.40;99.90;;;;;;4967595;28;20088;-64
2023/05/07 07:54:35;;;;;;;27.90;21.38;;;11.40;99.90;;;;;;4965373;28;20052;-64
2023/05/07 07:57:01;;;;;;;29.75;21.83;;;11.50;99.90;;;;;;4965091;28;20108;-64
2023/05/07 07:59:27;;;;;;;30.35;22.00;;;11.50;99.90;;;;;;4954643;28;20138;-64
2023/05/07 08:01:55;;;;;;;29.60;22.00;;;11.50;99.90;;;;;;4959418;28;20041;-64
2023/05/07 08:04:21;;;;;;;30.15;21.90;;;11.60;99.90;;;;;;4989359;28;20165;-64
2023/05/07 08:06:47;;;;;;;30.65;22.48;;;11.60;99.90;;;;;;4982392;28;20714;-64
2023/05/07 08:09:13;;;;;;;30.52;23.15;;;11.60;99.90;;;;;;4984266;28;20041;-64
2023/05/07 08:11:39;;;;;;;33.25;23.02;;;11.70;99.90;;;;;;4988131;28;20042;-64
2023/05/07 08:14:05;;;;;;;31.48;22.40;;;11.70;99.90;;;;;;4969146;28;20139;-64
2023/05/07 08:16:30;;;;;;;33.63;23.00;;;11.70;99.90;;;;;;4965098;28;20137;-64
2023/05/07 08:18:56;;;;;;;34.17;23.08;;;11.80;99.90;;;;;;4981758;28;20046;-64
2023/05/07 08:21:23;;;;;;;33.28;23.15;;;11.80;99.90;;;;;;4988801;28;20041;-63
2023/05/07 08:23:48;;;;;;;30.38;22.95;;;11.80;99.90;;;;;;4990708;28;20046;-64
2023/05/07 08:26:14;;;;;;;34.92;22.58;;;11.90;99.90;;;;;;4953125;28;20048;-64
2023/05/07 08:28:40;;;;;;;31.65;23.08;;;11.90;99.90;;;;;;4975604;28;20042;-64
2023/05/07 08:31:06;;;;;;;28.02;21.40;;;12.00;99.90;;;;;;4981185;28;20049;-64
2023/05/07 08:33:32;;;;;;;30.45;22.33;;;12.00;99.90;;;;;;4967286;28;20045;-63
2023/05/07 08:35:58;;;;;;;34.13;22.95;;;12.10;99.90;;;;;;4986005;28;20050;-64
2023/05/07 08:38:23;;;;;;;33.47;23.10;;;12.30;99.90;;;;;;4989105;28;20404;-65
2023/05/07 08:40:49;;;;;;;29.83;22.25;;;12.40;99.90;;;;;;4989576;28;20054;-64
2023/05/07 08:43:16;;;;;;;29.02;21.73;;;12.50;99.90;;;;;;4961168;28;20049;-64
2023/05/07 08:45:45;;;;;;;31.55;22.45;;;12.70;99.90;;;;;;4979400;28;20050;-64
2023/05/07 08:48:17;;;;;;;29.48;21.75;;;12.80;99.90;;;;;;4982359;28;20416;-64
2023/05/07 08:50:43;;;;;;;32.15;21.73;;;12.90;99.90;;;;;;4980192;28;20057;-64
2023/05/07 08:53:09;;;;;;;29.85;21.83;;;13.00;99.90;;;;;;4996909;28;20045;-64
2023/05/07 08:55:35;;;;;;;27.58;21.00;;;13.10;99.90;;;;;;4983074;28;20132;-64
2023/05/07 08:58:01;;;;;;;28.95;21.27;;;13.10;99.90;;;;;;4981551;28;20041;-64
2023/05/07 09:00:27;;;;;;;27.95;21.33;;;13.10;99.90;;;;;;4988913;28;20038;-64
2023/05/07 09:02:53;;;;;;;30.42;21.88;;;13.10;99.90;;;;;;5002746;28;20126;-63
2023/05/07 09:05:19;;;;;;;28.90;21.08;;;13.20;99.90;;;;;;4972026;28;20463;-63
2023/05/07 09:07:46;;;;;;;28.10;20.77;;;13.30;99.90;;;;;;4975852;28;20090;-65
2023/05/07 09:10:13;;;;;;;28.77;21.45;;;13.30;99.90;;;;;;4974872;28;20095;-63
2023/05/07 09:12:40;;;;;;;27.88;20.90;;;13.40;99.90;;;;;;4987613;28;20053;-65
2023/05/07 09:15:06;;;;;;;28.25;21.35;;;13.40;99.90;;;;;;4989892;28;20139;-64
2023/05/07 09:17:32;;;;;;;30.23;21.75;;;13.50;99.90;;;;;;4986742;28;20187;-63
2023/05/07 09:20:05;;;;;;;27.75;21.50;;;13.60;99.90;;;;;;4989474;28;20462;-64
2023/05/07 09:22:37;;;;;;;30.48;21.92;;;13.70;99.90;;;;;;4988309;28;20446;-64
2023/05/07 09:25:03;;;;;;;28.02;20.67;;;13.70;99.90;;;;;;4963733;28;20052;-63
2023/05/07 09:27:31;;;;;;;26.00;20.83;;;13.90;99.90;;;;;;4985339;28;20056;-63
2023/05/07 09:29:56;;;;;;;28.15;21.35;;;13.90;99.90;;;;;;4957093;28;20122;-63
2023/05/07 09:32:22;;;;;;;31.63;22.88;;;14.00;99.90;;;;;;4972369;28;20496;-64
2023/05/07 09:34:48;;;;;;;28.45;20.95;;;14.00;99.90;;;;;;4978640;28;20041;-65
2023/05/07 09:37:17;;;;;;;26.23;20.25;;;14.10;99.90;;;;;;4979240;28;20037;-65
2023/05/07 09:39:46;;;;;;;33.25;21.70;;;14.10;99.90;;;;;;4976297;28;20116;-63
2023/05/07 09:42:12;;;;;;;26.05;20.15;;;14.20;99.90;;;;;;4985858;28;20903;-63
2023/05/07 09:44:38;;;;;;;28.13;21.20;;;14.30;99.90;;;;;;4961527;28;20061;-64
2023/05/07 09:47:06;;;;;;;31.73;21.70;;;14.30;99.90;;;;;;4975629;28;20673;-63
2023/05/07 09:49:36;;;;;;;27.75;20.48;;;14.40;99.90;;;;;;4969096;28;20825;-64
2023/05/07 09:52:05;;;;;;;29.83;21.60;;;14.60;99.90;;;;;;4987512;28;20192;-63
2023/05/07 09:54:33;;;;;;;28.23;20.65;;;14.60;99.90;;;;;;4990495;28;20053;-64
2023/05/07 09:57:02;;;;;;;29.65;20.10;;;14.70;99.90;;;;;;4995409;28;20800;-65
2023/05/07 09:59:29;;;;;;;26.65;20.60;;;14.70;99.90;;;;;;4974148;28;20052;-64
2023/05/07 10:01:58;;;;;;;29.67;20.30;;;14.70;99.90;;;;;;4984523;28;20121;-63
2023/05/07 10:04:25;;;;;;;28.02;20.77;;;14.70;99.90;;;;;;4984642;28;21175;-63
2023/05/07 10:06:52;;;;;;;25.50;19.45;;;14.90;99.90;;;;;;4984083;28;20045;-65
2023/05/07 10:09:18;;;;;;;25.27;19.98;;;15.00;99.90;;;;;;4981095;28;20041;-64
2023/05/07 10:11:44;;;;;;;28.60;20.33;;;15.10;99.90;;;;;;4969220;28;20049;-64
2023/05/07 10:14:10;;;;;;;25.25;20.05;;;15.30;99.90;;;;;;4958920;28;20069;-65
2023/05/07 10:16:37;;;;;;;25.10;19.20;;;15.40;99.90;;;;;;4999731;28;20143;-65
2023/05/07 10:19:09;;;;;;;25.05;19.27;;;15.50;99.90;;;;;;4985135;28;20057;-65
2023/05/07 10:21:43;;;;;;;24.52;19.88;;;15.40;99.90;;;;;;4974353;28;20129;-64
2023/05/07 10:24:15;;;;;;;23.70;18.80;;;15.50;99.90;;;;;;4995312;28;20045;-65
2023/05/07 10:26:48;;;;;;;23.77;18.45;;;15.50;99.90;;;;;;4982488;28;20052;-65
2023/05/07 10:29:42;;;;;;;25.15;18.77;;;15.60;99.90;;;;;;4988555;28;20041;-63
2023/05/07 10:32:45;;;;;;;24.35;18.40;;;15.70;99.90;;;;;;4977562;28;20052;-64
2023/05/07 10:35:20;;;;;;;25.25;18.35;;;15.80;99.90;;;;;;4980427;28;20181;-65
2023/05/07 10:37:46;;;;;;;23.38;17.90;;;15.90;99.90;;;;;;4990553;28;20252;-65
2023/05/07 10:40:13;;;;;;;21.90;17.98;;;16.10;99.90;;;;;;4986931;28;20758;-65
2023/05/07 10:42:52;;;;;;;25.50;18.48;;;16.10;99.90;;;;;;4975954;28;20048;-65
2023/05/07 10:45:18;;;;;;;23.38;18.15;;;16.20;99.90;;;;;;4981000;28;20056;-64
2023/05/07 10:48:06;;;;;;;23.25;18.13;;;16.20;99.90;;;;;;4984841;28;20037;-64
2023/05/07 10:50:31;;;;;;;26.33;18.45;;;16.40;99.90;;;;;;4982977;28;20168;-63
2023/05/07 10:53:18;;;;;;;20.60;17.48;;;16.60;99.90;;;;;;4958760;28;20051;-64
2023/05/07 10:55:48;;;;;;;22.50;17.70;;;16.70;99.90;;;;;;4989532;28;20133;-65
2023/05/07 10:58:25;;;;;;;21.27;17.20;;;16.70;99.90;;;;;;4977529;28;20080;-65
2023/05/07 11:00:51;;;;;;;21.77;16.98;;;16.90;99.90;;;;;;4989200;28;20631;-64
2023/05/07 11:03:17;;;;;;;20.90;17.25;;;17.00;99.90;;;;;;4993922;28;20810;-63
2023/05/07 11:05:43;;;;;;;18.58;15.98;;;17.10;99.90;;;;;;4976888;28;20040;-63
2023/05/07 11:08:09;;;;;;;21.38;16.65;;;17.20;99.90;;;;;;4958646;28;20084;-64
2023/05/07 11:10:58;;;;;;;19.52;16.58;;;17.40;99.90;;;;;;4987889;28;20125;-64
2023/05/07 11:13:44;;;;;;;22.08;16.02;;;17.50;99.90;;;;;;4973223;28;20061;-65
2023/05/07 11:16:23;;;;;;;19.88;16.27;;;17.50;99.90;;;;;;4986307;28;20464;-66
2023/05/07 11:18:54;;;;;;;20.48;16.30;;;17.70;99.90;;;;;;4976129;28;20076;-63
2023/05/07 11:21:39;;;;;;;18.95;16.35;;;17.70;99.90;;;;;;4961560;28;20044;-64
2023/05/07 11:24:10;;;;;;;18.63;16.52;;;17.80;99.90;;;;;;4984094;28;20117;-66
2023/05/07 11:26:48;;;;;;;19.20;15.68;;;17.80;99.90;;;;;;4973001;28;20464;-65
2023/05/07 11:29:19;;;;;;;19.38;15.15;;;17.80;99.90;;;;;;4997768;28;20044;-65
2023/05/07 11:31:52;;;;;;;18.52;15.70;;;17.90;99.90;;;;;;4981929;28;20102;-64
2023/05/07 11:34:26;;;;;;;20.33;15.32;;;18.00;99.90;;;;;;4965489;28;20048;-63
2023/05/07 11:36:52;;;;;;;17.88;15.13;;;18.00;99.90;;;;;;4982436;28;20111;-65
2023/05/07 11:39:44;;;;;;;24.60;15.45;;;18.10;99.90;;;;;;4974142;28;20053;-62
2023/05/07 11:42:30;;;;;;;22.25;14.80;;;18.20;99.90;;;;;;4973517;28;20064;-57
2023/05/07 11:44:57;;;;;;;17.73;14.73;;;18.30;99.90;;;;;;5003934;28;20447;-60
2023/05/07 11:47:22;;;;;;;21.83;14.85;;;18.40;99.90;;;;;;5000878;28;20041;-60
2023/05/07 11:49:53;;;;;;;21.20;15.20;;;18.50;99.90;;;;;;5002073;28;21787;-53
2023/05/07 11:52:20;;;;;;;15.98;14.23;;;18.70;99.90;;;;;;5004546;28;20049;-60
2023/05/07 11:54:54;;;;;;;17.25;14.60;;;18.90;99.90;;;;;;5008206;28;20049;-58
2023/05/07 11:57:21;;;;;;;18.98;14.63;;;18.90;99.90;;;;;;5002762;28;20076;-57
2023/05/07 11:59:48;;;;;;;16.58;14.00;;;19.10;99.90;;;;;;5003238;28;20898;-59
2023/05/07 12:02:15;;;;;;;16.45;14.65;;;19.30;99.90;;;;;;4991143;28;20057;-62
2023/05/07 12:04:41;;;;;;;16.38;13.45;;;19.50;99.90;;;;;;5000269;28;20111;-59
2023/05/07 12:07:14;;;;;;;15.80;13.95;;;19.60;99.90;;;;;;5001580;28;21055;-58
2023/05/07 12:09:44;;;;;;;14.90;13.35;;;19.80;99.90;;;;;;5008623;28;20060;-58
2023/05/07 12:12:10;;;;;;;17.52;13.10;;;19.90;99.90;;;;;;4983630;28;20049;-57
2023/05/07 12:14:40;;;;;;;15.75;13.73;;;20.10;99.90;;;;;;5002301;28;20069;-61
2023/05/07 12:17:08;;;;;;;14.20;12.30;;;20.30;99.90;;;;;;5007951;28;20959;-59
2023/05/07 12:19:34;;;;;;;15.77;12.63;;;20.50;99.90;;;;;;5002706;28;20115;-61
2023/05/07 12:22:05;;;;;;;19.02;12.93;;;20.90;99.90;;;;;;4989349;28;20085;-60
2023/05/07 12:24:47;;;;;;;18.98;12.93;;;21.00;99.90;;;;;;4981373;28;20046;-59
2023/05/07 12:27:16;;;;;;;21.20;12.65;;;21.10;99.90;;;;;;4983667;28;21019;-61
2023/05/07 12:29:50;;;;;;;18.45;13.20;;;20.90;99.90;;;;;;4999817;28;20045;-61